sensor_id;sensor_type;location;lat;lon;timestamp;pressure;altitude;pressure_sealevel;temperature;humidity
79077;BME280;68477;42.698;23.342;2023-08-20T00:01:05;95656.06;;;22.01;53.15
79077;BME280;68477;42.698;23.342;2023-08-20T00:03:31;95650.81;;;21.94;53.68
79077;BME280;68477;42.698;23.342;2023-08-20T00:05:57;95647.31;;;21.70;54.11
79077;BME280;68477;42.698;23.342;2023-08-20T00:08:22;95652.38;;;21.37;55.11
79077;BME280;68477;42.698;23.342;2023-08-20T00:10:48;95652.19;;;21.62;54.98
79077;BME280;68477;42.698;23.342;2023-08-20T00:13:13;95651.56;;;21.36;56.19
79077;BME280;68477;42.698;23.342;2023-08-20T00:15:39;95646.91;;;21.32;55.80
79077;BME280;68477;42.698;23.342;2023-08-20T00:18:05;95653.66;;;21.34;55.82
79077;BME280;68477;42.698;23.342;2023-08-20T00:20:30;95657.66;;;21.43;55.73
79077;BME280;68477;42.698;23.342;2023-08-20T00:22:56;95650.69;;;21.24;56.54
79077;BME280;68477;42.698;23.342;2023-08-20T00:25:22;95647.06;;;21.72;55.20
79077;BME280;68477;42.698;23.342;2023-08-20T00:27:47;95658.19;;;22.11;53.58
79077;BME280;68477;42.698;23.342;2023-08-20T00:30:13;95655.13;;;21.18;56.22
79077;BME280;68477;42.698;23.342;2023-08-20T00:32:39;95650.56;;;21.61;55.24
79077;BME280;68477;42.698;23.342;2023-08-20T00:35:05;95656.50;;;20.61;58.70
79077;BME280;68477;42.698;23.342;2023-08-20T00:37:32;95655.81;;;20.66;58.28
79077;BME280;68477;42.698;23.342;2023-08-20T00:39:58;95652.63;;;21.17;56.70
79077;BME280;68477;42.698;23.342;2023-08-20T00:42:24;95650.31;;;20.60;58.04
79077;BME280;68477;42.698;23.342;2023-08-20T00:44:54;95648.13;;;21.83;54.68
79077;BME280;68477;42.698;23.342;2023-08-20T00:47:20;95654.34;;;21.00;57.97
79077;BME280;68477;42.698;23.342;2023-08-20T00:49:47;95651.44;;;21.01;58.05
79077;BME280;68477;42.698;23.342;2023-08-20T00:52:14;95657.25;;;21.28;57.34
79077;BME280;68477;42.698;23.342;2023-08-20T00:54:41;95656.19;;;20.32;59.73
79077;BME280;68477;42.698;23.342;2023-08-20T00:57:08;95656.13;;;20.57;59.31
79077;BME280;68477;42.698;23.342;2023-08-20T00:59:33;95655.19;;;20.82;58.76
79077;BME280;68477;42.698;23.342;2023-08-20T01:02:00;95651.38;;;20.23;60.10
79077;BME280;68477;42.698;23.342;2023-08-20T01:04:28;95648.03;;;20.27;60.63
79077;BME280;68477;42.698;23.342;2023-08-20T01:07:18;95652.34;;;20.95;58.54
79077;BME280;68477;42.698;23.342;2023-08-20T01:12:38;95648.75;;;20.34;59.69
79077;BME280;68477;42.698;23.342;2023-08-20T01:15:04;95646.00;;;20.78;59.21
79077;BME280;68477;42.698;23.342;2023-08-20T01:17:29;95650.06;;;20.50;59.63
79077;BME280;68477;42.698;23.342;2023-08-20T01:19:55;95655.19;;;21.12;57.76
79077;BME280;68477;42.698;23.342;2023-08-20T01:25:05;95657.81;;;20.33;60.61
79077;BME280;68477;42.698;23.342;2023-08-20T01:27:58;95647.28;;;20.20;61.30
79077;BME280;68477;42.698;23.342;2023-08-20T01:30:28;95642.91;;;20.26;60.73
79077;BME280;68477;42.698;23.342;2023-08-20T01:32:55;95642.47;;;20.29;60.47
79077;BME280;68477;42.698;23.342;2023-08-20T01:35:24;95640.09;;;20.39;59.65
79077;BME280;68477;42.698;23.342;2023-08-20T01:37:51;95642.72;;;20.46;59.86
79077;BME280;68477;42.698;23.342;2023-08-20T01:40:16;95636.78;;;20.44;60.35
79077;BME280;68477;42.698;23.342;2023-08-20T01:42:42;95639.03;;;20.03;61.51
79077;BME280;68477;42.698;23.342;2023-08-20T01:45:08;95632.84;;;20.28;60.69
79077;BME280;68477;42.698;23.342;2023-08-20T01:47:33;95624.66;;;20.89;58.78
79077;BME280;68477;42.698;23.342;2023-08-20T01:49:59;95622.38;;;20.45;60.22
79077;BME280;68477;42.698;23.342;2023-08-20T01:52:26;95620.94;;;20.24;60.64
79077;BME280;68477;42.698;23.342;2023-08-20T01:54:52;95620.44;;;20.52;60.65
79077;BME280;68477;42.698;23.342;2023-08-20T01:57:18;95608.72;;;20.16;61.37
79077;BME280;68477;42.698;23.342;2023-08-20T01:59:44;95607.91;;;19.97;61.43
79077;BME280;68477;42.698;23.342;2023-08-20T02:02:09;95611.66;;;19.90;61.91
79077;BME280;68477;42.698;23.342;2023-08-20T02:04:35;95609.03;;;20.75;58.83
79077;BME280;68477;42.698;23.342;2023-08-20T02:07:00;95607.06;;;20.52;59.74
79077;BME280;68477;42.698;23.342;2023-08-20T02:09:26;95605.56;;;20.56;59.32
79077;BME280;68477;42.698;23.342;2023-08-20T02:11:51;95602.94;;;20.68;59.22
79077;BME280;68477;42.698;23.342;2023-08-20T02:14:17;95603.06;;;20.24;60.64
79077;BME280;68477;42.698;23.342;2023-08-20T02:16:43;95591.84;;;20.34;60.06
79077;BME280;68477;42.698;23.342;2023-08-20T02:19:08;95590.53;;;20.06;60.97
79077;BME280;68477;42.698;23.342;2023-08-20T02:21:34;95591.25;;;19.77;62.77
79077;BME280;68477;42.698;23.342;2023-08-20T02:23:59;95594.31;;;19.99;61.51
79077;BME280;68477;42.698;23.342;2023-08-20T02:26:25;95587.50;;;19.85;62.13
79077;BME280;68477;42.698;23.342;2023-08-20T02:28:51;95587.34;;;19.98;61.56
79077;BME280;68477;42.698;23.342;2023-08-20T02:31:16;95588.81;;;20.12;61.11
79077;BME280;68477;42.698;23.342;2023-08-20T02:33:42;95591.59;;;20.05;61.31
79077;BME280;68477;42.698;23.342;2023-08-20T02:36:07;95596.63;;;20.50;59.64
79077;BME280;68477;42.698;23.342;2023-08-20T02:38:33;95593.78;;;20.27;61.08
79077;BME280;68477;42.698;23.342;2023-08-20T02:41:00;95598.28;;;20.26;60.93
79077;BME280;68477;42.698;23.342;2023-08-20T02:43:26;95599.50;;;20.12;60.88
79077;BME280;68477;42.698;23.342;2023-08-20T02:45:51;95602.75;;;20.14;61.54
79077;BME280;68477;42.698;23.342;2023-08-20T02:48:17;95607.97;;;20.09;61.29
79077;BME280;68477;42.698;23.342;2023-08-20T02:50:43;95603.88;;;20.25;60.91
79077;BME280;68477;42.698;23.342;2023-08-20T02:53:08;95598.22;;;19.78;61.91
79077;BME280;68477;42.698;23.342;2023-08-20T02:55:34;95607.94;;;19.72;62.75
79077;BME280;68477;42.698;23.342;2023-08-20T02:58:01;95601.16;;;19.70;62.66
79077;BME280;68477;42.698;23.342;2023-08-20T03:00:27;95596.88;;;20.60;59.74
79077;BME280;68477;42.698;23.342;2023-08-20T03:02:54;95607.78;;;21.19;58.17
79077;BME280;68477;42.698;23.342;2023-08-20T03:05:19;95607.16;;;20.45;60.21
79077;BME280;68477;42.698;23.342;2023-08-20T03:07:45;95615.75;;;20.96;58.85
79077;BME280;68477;42.698;23.342;2023-08-20T03:10:10;95611.44;;;19.91;62.21
79077;BME280;68477;42.698;23.342;2023-08-20T03:12:36;95617.13;;;19.52;63.95
79077;BME280;68477;42.698;23.342;2023-08-20T03:15:02;95620.16;;;19.62;63.48
79077;BME280;68477;42.698;23.342;2023-08-20T03:17:28;95621.78;;;19.38;64.52
79077;BME280;68477;42.698;23.342;2023-08-20T03:20:03;95620.09;;;19.68;63.04
79077;BME280;68477;42.698;23.342;2023-08-20T03:22:31;95613.91;;;20.29;61.15
79077;BME280;68477;42.698;23.342;2023-08-20T03:24:57;95615.81;;;20.89;59.07
79077;BME280;68477;42.698;23.342;2023-08-20T03:27:23;95621.72;;;20.79;59.02
79077;BME280;68477;42.698;23.342;2023-08-20T03:29:48;95614.84;;;19.98;62.07
79077;BME280;68477;42.698;23.342;2023-08-20T03:32:14;95611.88;;;19.88;62.10
79077;BME280;68477;42.698;23.342;2023-08-20T03:34:39;95616.84;;;20.03;62.45
79077;BME280;68477;42.698;23.342;2023-08-20T03:37:04;95625.38;;;19.75;63.17
79077;BME280;68477;42.698;23.342;2023-08-20T03:39:30;95615.06;;;19.04;65.83
79077;BME280;68477;42.698;23.342;2023-08-20T03:41:56;95613.78;;;19.38;65.09
79077;BME280;68477;42.698;23.342;2023-08-20T03:44:23;95617.72;;;19.04;65.95
79077;BME280;68477;42.698;23.342;2023-08-20T03:46:49;95612.28;;;19.17;65.65
79077;BME280;68477;42.698;23.342;2023-08-20T03:49:15;95612.53;;;18.77;67.06
79077;BME280;68477;42.698;23.342;2023-08-20T03:51:40;95607.19;;;19.65;64.50
79077;BME280;68477;42.698;23.342;2023-08-20T03:54:08;95603.44;;;19.73;63.71
79077;BME280;68477;42.698;23.342;2023-08-20T03:56:33;95605.94;;;18.86;66.80
79077;BME280;68477;42.698;23.342;2023-08-20T03:58:59;95612.06;;;19.18;66.54
79077;BME280;68477;42.698;23.342;2023-08-20T04:01:24;95600.91;;;19.28;66.17
79077;BME280;68477;42.698;23.342;2023-08-20T04:03:50;95604.78;;;19.07;67.10
79077;BME280;68477;42.698;23.342;2023-08-20T04:06:15;95603.09;;;18.81;68.47
79077;BME280;68477;42.698;23.342;2023-08-20T04:08:41;95609.88;;;19.09;66.48
79077;BME280;68477;42.698;23.342;2023-08-20T04:11:06;95603.34;;;18.28;70.31
79077;BME280;68477;42.698;23.342;2023-08-20T04:13:32;95593.50;;;18.74;68.37
79077;BME280;68477;42.698;23.342;2023-08-20T04:15:57;95605.44;;;18.65;68.46
79077;BME280;68477;42.698;23.342;2023-08-20T04:18:23;95601.94;;;18.26;70.62
79077;BME280;68477;42.698;23.342;2023-08-20T04:20:52;95602.59;;;18.53;69.72
79077;BME280;68477;42.698;23.342;2023-08-20T04:23:18;95609.28;;;18.30;70.88
79077;BME280;68477;42.698;23.342;2023-08-20T04:25:44;95606.69;;;18.55;69.65
79077;BME280;68477;42.698;23.342;2023-08-20T04:28:10;95608.31;;;18.70;69.69
79077;BME280;68477;42.698;23.342;2023-08-20T04:30:36;95611.28;;;19.11;68.33
79077;BME280;68477;42.698;23.342;2023-08-20T04:33:01;95603.81;;;18.57;70.23
79077;BME280;68477;42.698;23.342;2023-08-20T04:35:27;95614.47;;;18.57;69.90
79077;BME280;68477;42.698;23.342;2023-08-20T04:37:54;95605.44;;;19.28;67.79
79077;BME280;68477;42.698;23.342;2023-08-20T04:40:19;95608.50;;;18.68;70.02
79077;BME280;68477;42.698;23.342;2023-08-20T04:42:45;95610.38;;;19.24;68.26
79077;BME280;68477;42.698;23.342;2023-08-20T04:45:10;95607.28;;;19.52;67.28
79077;BME280;68477;42.698;23.342;2023-08-20T04:47:37;95611.59;;;19.28;67.73
79077;BME280;68477;42.698;23.342;2023-08-20T04:50:02;95610.88;;;19.14;68.05
79077;BME280;68477;42.698;23.342;2023-08-20T04:52:28;95617.63;;;19.67;65.83
79077;BME280;68477;42.698;23.342;2023-08-20T04:54:54;95622.50;;;19.45;66.50
79077;BME280;68477;42.698;23.342;2023-08-20T04:57:19;95616.63;;;20.23;63.21
79077;BME280;68477;42.698;23.342;2023-08-20T04:59:44;95617.03;;;20.08;63.71
79077;BME280;68477;42.698;23.342;2023-08-20T05:02:13;95615.53;;;20.30;62.49
79077;BME280;68477;42.698;23.342;2023-08-20T05:04:39;95620.63;;;20.14;63.30
79077;BME280;68477;42.698;23.342;2023-08-20T05:07:04;95615.66;;;20.35;62.44
79077;BME280;68477;42.698;23.342;2023-08-20T05:09:30;95613.03;;;20.17;63.65
79077;BME280;68477;42.698;23.342;2023-08-20T05:11:56;95610.13;;;20.19;64.15
79077;BME280;68477;42.698;23.342;2023-08-20T05:14:21;95619.69;;;20.63;61.79
79077;BME280;68477;42.698;23.342;2023-08-20T05:16:47;95619.84;;;20.80;61.05
79077;BME280;68477;42.698;23.342;2023-08-20T05:19:12;95621.69;;;20.13;64.49
79077;BME280;68477;42.698;23.342;2023-08-20T05:21:37;95629.47;;;20.32;63.31
79077;BME280;68477;42.698;23.342;2023-08-20T05:24:03;95634.69;;;20.27;63.74
79077;BME280;68477;42.698;23.342;2023-08-20T05:26:29;95620.34;;;20.88;61.80
79077;BME280;68477;42.698;23.342;2023-08-20T05:28:54;95629.75;;;21.21;60.28
79077;BME280;68477;42.698;23.342;2023-08-20T05:31:20;95635.31;;;21.61;58.93
79077;BME280;68477;42.698;23.342;2023-08-20T05:33:46;95639.19;;;21.23;59.55
79077;BME280;68477;42.698;23.342;2023-08-20T05:36:11;95629.94;;;21.49;59.09
79077;BME280;68477;42.698;23.342;2023-08-20T05:38:36;95635.66;;;21.11;61.18
79077;BME280;68477;42.698;23.342;2023-08-20T05:41:02;95641.34;;;21.45;58.17
79077;BME280;68477;42.698;23.342;2023-08-20T05:43:27;95631.38;;;21.87;57.97
79077;BME280;68477;42.698;23.342;2023-08-20T05:45:53;95637.13;;;21.37;59.01
79077;BME280;68477;42.698;23.342;2023-08-20T05:48:18;95637.06;;;21.56;58.87
79077;BME280;68477;42.698;23.342;2023-08-20T05:50:44;95648.63;;;21.26;59.62
79077;BME280;68477;42.698;23.342;2023-08-20T05:53:09;95646.38;;;21.23;60.24
79077;BME280;68477;42.698;23.342;2023-08-20T05:55:35;95646.72;;;21.57;59.88
79077;BME280;68477;42.698;23.342;2023-08-20T05:58:00;95648.72;;;22.31;57.24
79077;BME280;68477;42.698;23.342;2023-08-20T06:00:26;95635.31;;;21.85;58.35
79077;BME280;68477;42.698;23.342;2023-08-20T06:02:51;95630.91;;;21.67;58.85
79077;BME280;68477;42.698;23.342;2023-08-20T06:05:17;95634.88;;;21.88;58.45
79077;BME280;68477;42.698;23.342;2023-08-20T06:07:42;95636.16;;;22.20;56.75
79077;BME280;68477;42.698;23.342;2023-08-20T06:10:08;95639.41;;;22.62;55.89
79077;BME280;68477;42.698;23.342;2023-08-20T06:12:33;95643.25;;;22.15;56.31
79077;BME280;68477;42.698;23.342;2023-08-20T06:14:59;95645.78;;;22.45;56.04
79077;BME280;68477;42.698;23.342;2023-08-20T06:17:25;95644.13;;;22.55;54.82
79077;BME280;68477;42.698;23.342;2023-08-20T06:19:50;95644.25;;;23.17;53.96
79077;BME280;68477;42.698;23.342;2023-08-20T06:22:15;95648.06;;;23.84;51.73
79077;BME280;68477;42.698;23.342;2023-08-20T06:24:41;95653.66;;;23.65;52.83
79077;BME280;68477;42.698;23.342;2023-08-20T06:27:06;95655.97;;;23.28;53.55
79077;BME280;68477;42.698;23.342;2023-08-20T06:29:32;95648.66;;;22.95;54.87
79077;BME280;68477;42.698;23.342;2023-08-20T06:31:58;95646.69;;;23.19;54.45
79077;BME280;68477;42.698;23.342;2023-08-20T06:34:24;95652.03;;;24.15;50.68
79077;BME280;68477;42.698;23.342;2023-08-20T06:36:49;95645.38;;;25.05;47.69
79077;BME280;68477;42.698;23.342;2023-08-20T06:39:15;95648.81;;;24.78;48.17
79077;BME280;68477;42.698;23.342;2023-08-20T06:41:41;95647.44;;;24.54;50.14
79077;BME280;68477;42.698;23.342;2023-08-20T06:44:06;95648.63;;;24.63;50.11
79077;BME280;68477;42.698;23.342;2023-08-20T06:46:32;95650.06;;;24.92;47.87
79077;BME280;68477;42.698;23.342;2023-08-20T06:48:58;95648.38;;;25.08;47.21
79077;BME280;68477;42.698;23.342;2023-08-20T06:51:23;95643.44;;;24.78;48.08
79077;BME280;68477;42.698;23.342;2023-08-20T06:53:50;95650.00;;;24.65;49.43
79077;BME280;68477;42.698;23.342;2023-08-20T06:56:15;95648.78;;;25.00;47.58
79077;BME280;68477;42.698;23.342;2023-08-20T06:58:43;95648.38;;;25.35;46.72
79077;BME280;68477;42.698;23.342;2023-08-20T07:01:09;95641.63;;;25.33;46.95
79077;BME280;68477;42.698;23.342;2023-08-20T07:03:38;95648.47;;;25.45;46.88
79077;BME280;68477;42.698;23.342;2023-08-20T07:06:04;95653.38;;;25.53;46.52
79077;BME280;68477;42.698;23.342;2023-08-20T07:08:30;95650.53;;;25.97;45.76
79077;BME280;68477;42.698;23.342;2023-08-20T07:10:55;95649.88;;;26.22;45.02
79077;BME280;68477;42.698;23.342;2023-08-20T07:13:22;95647.78;;;26.34;45.48
79077;BME280;68477;42.698;23.342;2023-08-20T07:15:47;95640.72;;;26.23;44.64
79077;BME280;68477;42.698;23.342;2023-08-20T07:18:13;95643.72;;;26.32;44.47
79077;BME280;68477;42.698;23.342;2023-08-20T07:20:42;95645.59;;;26.74;43.13
79077;BME280;68477;42.698;23.342;2023-08-20T07:23:08;95641.00;;;26.79;43.49
79077;BME280;68477;42.698;23.342;2023-08-20T07:25:40;95639.47;;;27.04;42.32
79077;BME280;68477;42.698;23.342;2023-08-20T07:28:06;95640.44;;;26.72;42.89
79077;BME280;68477;42.698;23.342;2023-08-20T07:30:33;95646.97;;;26.91;41.83
79077;BME280;68477;42.698;23.342;2023-08-20T07:32:58;95646.25;;;26.44;42.67
79077;BME280;68477;42.698;23.342;2023-08-20T07:35:24;95647.13;;;27.32;41.12
79077;BME280;68477;42.698;23.342;2023-08-20T07:37:50;95639.44;;;26.98;41.45
79077;BME280;68477;42.698;23.342;2023-08-20T07:40:15;95651.72;;;27.32;40.05
79077;BME280;68477;42.698;23.342;2023-08-20T07:42:41;95643.06;;;28.36;38.72
79077;BME280;68477;42.698;23.342;2023-08-20T07:45:07;95651.16;;;28.41;38.42
79077;BME280;68477;42.698;23.342;2023-08-20T07:47:34;95643.91;;;28.01;38.54
79077;BME280;68477;42.698;23.342;2023-08-20T07:49:59;95645.75;;;28.41;37.05
79077;BME280;68477;42.698;23.342;2023-08-20T07:52:25;95643.28;;;28.50;37.54
79077;BME280;68477;42.698;23.342;2023-08-20T07:54:50;95642.34;;;28.85;36.79
79077;BME280;68477;42.698;23.342;2023-08-20T07:57:16;95645.03;;;28.95;37.04
79077;BME280;68477;42.698;23.342;2023-08-20T07:59:41;95645.53;;;29.03;36.20
79077;BME280;68477;42.698;23.342;2023-08-20T08:02:06;95647.50;;;28.92;36.41
79077;BME280;68477;42.698;23.342;2023-08-20T08:04:33;95642.63;;;28.89;35.61
79077;BME280;68477;42.698;23.342;2023-08-20T08:06:59;95646.34;;;28.98;35.67
79077;BME280;68477;42.698;23.342;2023-08-20T08:09:29;95640.31;;;29.16;35.52
79077;BME280;68477;42.698;23.342;2023-08-20T08:11:55;95638.88;;;29.29;36.42
79077;BME280;68477;42.698;23.342;2023-08-20T08:14:20;95643.47;;;29.34;35.25
79077;BME280;68477;42.698;23.342;2023-08-20T08:16:46;95645.09;;;29.35;34.78
79077;BME280;68477;42.698;23.342;2023-08-20T08:19:12;95642.63;;;29.38;34.21
79077;BME280;68477;42.698;23.342;2023-08-20T08:21:37;95643.59;;;29.13;34.87
79077;BME280;68477;42.698;23.342;2023-08-20T08:24:03;95647.19;;;29.48;34.81
79077;BME280;68477;42.698;23.342;2023-08-20T08:26:29;95635.28;;;28.99;34.76
79077;BME280;68477;42.698;23.342;2023-08-20T08:28:55;95650.91;;;29.13;34.91
79077;BME280;68477;42.698;23.342;2023-08-20T08:31:20;95650.44;;;29.84;32.61
79077;BME280;68477;42.698;23.342;2023-08-20T08:33:46;95637.38;;;29.57;33.68
79077;BME280;68477;42.698;23.342;2023-08-20T08:36:12;95634.34;;;29.93;32.84
79077;BME280;68477;42.698;23.342;2023-08-20T08:38:38;95635.53;;;29.47;32.19
79077;BME280;68477;42.698;23.342;2023-08-20T08:41:04;95639.22;;;29.62;32.10
79077;BME280;68477;42.698;23.342;2023-08-20T08:43:32;95637.03;;;30.27;30.41
79077;BME280;68477;42.698;23.342;2023-08-20T08:45:57;95635.28;;;30.12;31.14
79077;BME280;68477;42.698;23.342;2023-08-20T08:48:24;95633.81;;;30.49;30.72
79077;BME280;68477;42.698;23.342;2023-08-20T08:50:51;95640.16;;;30.39;30.07
79077;BME280;68477;42.698;23.342;2023-08-20T08:53:16;95638.44;;;30.24;31.08
79077;BME280;68477;42.698;23.342;2023-08-20T08:55:42;95633.84;;;30.20;32.45
79077;BME280;68477;42.698;23.342;2023-08-20T08:58:08;95645.22;;;30.75;29.97
79077;BME280;68477;42.698;23.342;2023-08-20T09:00:33;95644.41;;;31.73;27.17
79077;BME280;68477;42.698;23.342;2023-08-20T09:02:59;95644.31;;;31.97;27.52
79077;BME280;68477;42.698;23.342;2023-08-20T09:05:25;95645.94;;;31.04;28.22
79077;BME280;68477;42.698;23.342;2023-08-20T09:07:57;95651.06;;;32.00;27.84
79077;BME280;68477;42.698;23.342;2023-08-20T09:10:25;95640.03;;;32.24;27.84
79077;BME280;68477;42.698;23.342;2023-08-20T09:12:54;95643.97;;;31.66;28.52
79077;BME280;68477;42.698;23.342;2023-08-20T09:15:20;95641.19;;;32.04;28.00
79077;BME280;68477;42.698;23.342;2023-08-20T09:17:46;95637.09;;;32.06;28.03
79077;BME280;68477;42.698;23.342;2023-08-20T09:20:12;95636.66;;;32.59;25.87
79077;BME280;68477;42.698;23.342;2023-08-20T09:22:37;95627.69;;;32.45;26.95
79077;BME280;68477;42.698;23.342;2023-08-20T09:25:03;95638.63;;;32.26;26.68
79077;BME280;68477;42.698;23.342;2023-08-20T09:27:29;95634.75;;;32.60;26.29
79077;BME280;68477;42.698;23.342;2023-08-20T09:29:55;95632.63;;;32.57;26.66
79077;BME280;68477;42.698;23.342;2023-08-20T09:32:25;95633.69;;;31.25;27.50
79077;BME280;68477;42.698;23.342;2023-08-20T09:34:52;95633.56;;;32.06;27.09
79077;BME280;68477;42.698;23.342;2023-08-20T09:37:19;95636.34;;;32.47;26.81
79077;BME280;68477;42.698;23.342;2023-08-20T09:39:45;95633.94;;;32.46;26.53
79077;BME280;68477;42.698;23.342;2023-08-20T09:42:11;95628.00;;;32.57;26.55
79077;BME280;68477;42.698;23.342;2023-08-20T09:44:42;95626.69;;;32.41;26.53
79077;BME280;68477;42.698;23.342;2023-08-20T09:47:12;95631.19;;;32.73;25.42
79077;BME280;68477;42.698;23.342;2023-08-20T09:49:42;95629.06;;;33.61;24.36
79077;BME280;68477;42.698;23.342;2023-08-20T09:52:09;95630.41;;;32.59;25.20
79077;BME280;68477;42.698;23.342;2023-08-20T09:57:38;95613.34;;;32.81;24.56
79077;BME280;68477;42.698;23.342;2023-08-20T10:00:08;95623.44;;;33.08;25.39
79077;BME280;68477;42.698;23.342;2023-08-20T10:02:38;95618.63;;;33.41;24.12
79077;BME280;68477;42.698;23.342;2023-08-20T10:05:05;95622.16;;;33.86;24.24
79077;BME280;68477;42.698;23.342;2023-08-20T10:07:31;95626.38;;;33.47;24.42
79077;BME280;68477;42.698;23.342;2023-08-20T10:09:58;95624.16;;;33.72;23.97
79077;BME280;68477;42.698;23.342;2023-08-20T10:12:26;95614.91;;;33.37;23.55
79077;BME280;68477;42.698;23.342;2023-08-20T10:14:53;95633.53;;;33.79;22.99
79077;BME280;68477;42.698;23.342;2023-08-20T10:17:18;95625.78;;;33.95;23.40
79077;BME280;68477;42.698;23.342;2023-08-20T10:19:44;95623.72;;;33.20;23.72
79077;BME280;68477;42.698;23.342;2023-08-20T10:22:11;95633.44;;;32.57;24.50
79077;BME280;68477;42.698;23.342;2023-08-20T10:24:51;95630.50;;;33.58;24.10
79077;BME280;68477;42.698;23.342;2023-08-20T10:27:27;95619.97;;;33.88;23.38
79077;BME280;68477;42.698;23.342;2023-08-20T10:29:54;95618.06;;;34.20;23.23
79077;BME280;68477;42.698;23.342;2023-08-20T10:32:20;95625.59;;;33.33;23.24
79077;BME280;68477;42.698;23.342;2023-08-20T10:35:06;95611.53;;;33.76;24.12
79077;BME280;68477;42.698;23.342;2023-08-20T10:37:32;95616.69;;;33.86;24.10
79077;BME280;68477;42.698;23.342;2023-08-20T10:39:57;95623.00;;;34.40;23.90
79077;BME280;68477;42.698;23.342;2023-08-20T10:42:26;95603.63;;;33.97;22.49
79077;BME280;68477;42.698;23.342;2023-08-20T10:45:08;95603.47;;;34.55;22.84
79077;BME280;68477;42.698;23.342;2023-08-20T10:47:48;95599.91;;;33.12;24.12
79077;BME280;68477;42.698;23.342;2023-08-20T10:50:18;95591.03;;;34.40;23.06
79077;BME280;68477;42.698;23.342;2023-08-20T10:52:54;95593.41;;;34.33;23.24
79077;BME280;68477;42.698;23.342;2023-08-20T10:55:24;95589.56;;;33.58;23.25
79077;BME280;68477;42.698;23.342;2023-08-20T10:57:56;95590.09;;;34.45;23.92
79077;BME280;68477;42.698;23.342;2023-08-20T11:00:27;95586.84;;;34.43;22.64
79077;BME280;68477;42.698;23.342;2023-08-20T11:02:53;95595.88;;;34.12;22.82
79077;BME280;68477;42.698;23.342;2023-08-20T11:05:20;95586.56;;;34.53;21.96
79077;BME280;68477;42.698;23.342;2023-08-20T11:07:48;95583.56;;;34.63;22.50
79077;BME280;68477;42.698;23.342;2023-08-20T11:10:15;95577.09;;;35.16;20.98
79077;BME280;68477;42.698;23.342;2023-08-20T11:12:42;95573.63;;;34.67;22.42
79077;BME280;68477;42.698;23.342;2023-08-20T11:15:09;95573.75;;;35.45;21.12
79077;BME280;68477;42.698;23.342;2023-08-20T11:17:39;95584.97;;;34.43;22.32
79077;BME280;68477;42.698;23.342;2023-08-20T11:20:05;95578.78;;;34.78;22.02
79077;BME280;68477;42.698;23.342;2023-08-20T11:22:32;95574.50;;;34.94;21.82
79077;BME280;68477;42.698;23.342;2023-08-20T11:24:59;95575.28;;;35.98;21.18
79077;BME280;68477;42.698;23.342;2023-08-20T11:27:28;95570.69;;;35.47;21.87
79077;BME280;68477;42.698;23.342;2023-08-20T11:29:53;95567.09;;;35.90;21.48
79077;BME280;68477;42.698;23.342;2023-08-20T11:32:23;95570.00;;;35.33;21.44
79077;BME280;68477;42.698;23.342;2023-08-20T11:34:48;95562.91;;;34.97;22.25
79077;BME280;68477;42.698;23.342;2023-08-20T11:37:20;95559.91;;;34.59;22.68
79077;BME280;68477;42.698;23.342;2023-08-20T11:39:50;95556.25;;;36.10;20.93
79077;BME280;68477;42.698;23.342;2023-08-20T11:42:16;95556.31;;;35.67;21.56
79077;BME280;68477;42.698;23.342;2023-08-20T11:44:43;95557.56;;;34.83;22.24
79077;BME280;68477;42.698;23.342;2023-08-20T11:47:14;95563.56;;;35.89;21.14
79077;BME280;68477;42.698;23.342;2023-08-20T11:49:39;95561.16;;;35.70;21.04
79077;BME280;68477;42.698;23.342;2023-08-20T11:52:06;95547.56;;;34.30;23.20
79077;BME280;68477;42.698;23.342;2023-08-20T11:54:32;95562.19;;;36.12;21.71
79077;BME280;68477;42.698;23.342;2023-08-20T11:57:02;95553.75;;;35.19;22.34
79077;BME280;68477;42.698;23.342;2023-08-20T11:59:28;95543.38;;;34.64;22.42
79077;BME280;68477;42.698;23.342;2023-08-20T12:01:58;95555.38;;;35.72;22.35
79077;BME280;68477;42.698;23.342;2023-08-20T12:04:27;95552.16;;;35.52;21.43
79077;BME280;68477;42.698;23.342;2023-08-20T12:07:08;95553.47;;;36.19;21.55
79077;BME280;68477;42.698;23.342;2023-08-20T12:09:34;95550.47;;;36.03;21.06
79077;BME280;68477;42.698;23.342;2023-08-20T12:12:00;95550.69;;;35.64;21.97
79077;BME280;68477;42.698;23.342;2023-08-20T12:14:26;95540.06;;;35.71;22.12
79077;BME280;68477;42.698;23.342;2023-08-20T12:16:53;95542.75;;;35.97;22.05
79077;BME280;68477;42.698;23.342;2023-08-20T12:19:19;95549.00;;;36.53;21.03
79077;BME280;68477;42.698;23.342;2023-08-20T12:21:44;95537.81;;;35.73;21.60
79077;BME280;68477;42.698;23.342;2023-08-20T12:24:11;95532.31;;;35.73;21.89
79077;BME280;68477;42.698;23.342;2023-08-20T12:26:37;95534.06;;;36.03;22.16
79077;BME280;68477;42.698;23.342;2023-08-20T12:29:02;95531.34;;;36.71;21.44
79077;BME280;68477;42.698;23.342;2023-08-20T12:31:28;95534.66;;;36.09;21.66
79077;BME280;68477;42.698;23.342;2023-08-20T12:33:53;95527.16;;;34.67;23.25
79077;BME280;68477;42.698;23.342;2023-08-20T12:36:19;95528.00;;;36.27;21.15
79077;BME280;68477;42.698;23.342;2023-08-20T12:38:44;95533.44;;;36.65;21.05
79077;BME280;68477;42.698;23.342;2023-08-20T12:41:10;95535.78;;;36.55;21.21
79077;BME280;68477;42.698;23.342;2023-08-20T12:43:35;95529.91;;;36.35;21.20
79077;BME280;68477;42.698;23.342;2023-08-20T12:46:01;95520.06;;;35.96;21.45
79077;BME280;68477;42.698;23.342;2023-08-20T12:48:26;95525.97;;;36.07;21.56
79077;BME280;68477;42.698;23.342;2023-08-20T12:50:52;95524.56;;;36.68;21.08
79077;BME280;68477;42.698;23.342;2023-08-20T12:53:17;95525.75;;;37.09;20.65
79077;BME280;68477;42.698;23.342;2023-08-20T12:55:43;95520.88;;;36.35;20.76